createdAt,value
2023-05-15T00:01:14.079Z,87.09
2023-05-15T00:06:15.742Z,86.81
2023-05-15T00:11:17.498Z,88.03
2023-05-15T00:16:19.372Z,91.35
2023-05-15T00:21:21.081Z,92.80
2023-05-15T00:26:23.379Z,92.45
2023-05-15T00:31:25.075Z,90.67
2023-05-15T00:36:26.749Z,93.46
2023-05-15T00:41:32.172Z,90.26
2023-05-15T00:46:35.690Z,90.50
2023-05-15T00:51:37.485Z,92.09
2023-05-15T00:56:40.284Z,91.45
2023-05-15T01:01:45.134Z,90.50
2023-05-15T01:06:48.760Z,93.26
2023-05-15T01:11:53.471Z,95.11
2023-05-15T01:16:55.141Z,92.73
2023-05-15T01:22:18.020Z,89.74
2023-05-15T01:27:32.189Z,89.48
2023-05-15T01:32:39.854Z,89.91
2023-05-15T01:37:45.533Z,94.57
2023-05-15T01:42:56.145Z,96.40
2023-05-15T01:48:00.639Z,96.55
2023-05-15T01:53:03.804Z,93.98
2023-05-15T01:58:05.510Z,91.70
2023-05-15T02:03:07.460Z,90.86
2023-05-15T02:08:09.794Z,90.75
2023-05-15T02:13:12.638Z,95.19
2023-05-15T02:18:14.306Z,95.49
2023-05-15T02:23:16.013Z,94.10
2023-05-15T02:28:24.289Z,93.36
2023-05-15T02:33:39.506Z,93.29
2023-05-15T02:38:47.162Z,91.09
2023-05-15T02:43:51.879Z,91.13
2023-05-15T02:48:54.835Z,93.91
2023-05-15T02:53:56.496Z,95.43
2023-05-15T02:58:58.170Z,95.38
2023-05-15T03:03:59.835Z,95.09
2023-05-15T03:09:01.540Z,95.86
2023-05-15T03:14:03.344Z,95.91
2023-05-15T03:19:05.462Z,95.85
2023-05-15T03:24:07.421Z,94.25
2023-05-15T03:29:09.090Z,93.75
2023-05-15T03:34:10.948Z,95.42
2023-05-15T03:39:12.632Z,96.20
2023-05-15T03:44:14.297Z,95.27
2023-05-15T03:49:16.015Z,95.08
2023-05-15T03:54:17.696Z,92.82
2023-05-15T03:59:19.260Z,93.86
2023-05-15T04:04:20.850Z,96.30
2023-05-15T04:09:22.463Z,96.67
2023-05-15T04:14:24.070Z,96.10
2023-05-15T04:19:25.705Z,97.97
2023-05-15T04:24:27.310Z,96.92
2023-05-15T04:29:28.910Z,96.20
2023-05-15T04:34:30.572Z,94.47
2023-05-15T04:39:32.241Z,98.66
2023-05-15T04:44:34.076Z,97.82
2023-05-15T04:49:35.694Z,93.65
2023-05-15T04:54:37.301Z,97.45
2023-05-15T04:59:38.954Z,98.43
2023-05-15T05:04:45.638Z,98.16
2023-05-15T05:09:47.348Z,96.90
2023-05-15T05:14:49.323Z,95.70
2023-05-15T05:19:51.011Z,94.07
2023-05-15T05:24:52.674Z,91.38
2023-05-15T05:29:54.378Z,88.14
2023-05-15T05:34:56.011Z,84.33
2023-05-15T05:39:57.671Z,85.04
2023-05-15T05:44:59.266Z,83.92
2023-05-15T05:50:01.086Z,82.49
2023-05-15T05:55:03.152Z,83.84
2023-05-15T06:00:10.545Z,86.30
2023-05-15T06:05:13.523Z,84.83
2023-05-15T06:10:15.676Z,80.83
2023-05-15T06:15:17.473Z,82.10
2023-05-15T06:20:19.131Z,82.67
2023-05-15T06:25:21.007Z,80.23
2023-05-15T06:30:23.018Z,82.80
2023-05-15T06:35:24.820Z,80.92
2023-05-15T06:40:26.636Z,79.57
2023-05-15T06:45:28.749Z,77.41
2023-05-15T06:50:30.667Z,73.65
2023-05-15T06:55:34.154Z,74.00
2023-05-15T07:00:35.754Z,74.46
2023-05-15T07:05:37.347Z,78.37
2023-05-15T07:10:38.962Z,74.75
2023-05-15T07:15:40.579Z,74.79
2023-05-15T07:20:42.452Z,71.66
2023-05-15T07:25:45.300Z,72.58
2023-05-15T07:30:47.769Z,70.55
2023-05-15T07:35:50.816Z,72.89
2023-05-15T07:40:52.462Z,72.37
2023-05-15T07:45:54.182Z,72.60
2023-05-15T07:50:57.075Z,70.14
2023-05-15T07:55:59.384Z,68.80
2023-05-15T08:01:01.140Z,69.86
2023-05-15T08:06:02.926Z,70.73
2023-05-15T08:11:04.640Z,71.49
2023-05-15T08:16:06.501Z,70.41
2023-05-15T08:21:08.302Z,72.52
2023-05-15T08:26:09.937Z,72.23
2023-05-15T08:31:11.671Z,72.64
2023-05-15T08:36:14.155Z,72.16
2023-05-15T08:41:40.110Z,71.51
2023-05-15T08:46:43.427Z,72.79
2023-05-15T08:51:45.597Z,73.63
2023-05-15T08:56:47.548Z,72.73
2023-05-15T09:01:49.869Z,69.42
2023-05-15T09:06:52.720Z,69.10
2023-05-15T09:11:54.678Z,71.30
2023-05-15T09:16:56.636Z,70.60
2023-05-15T09:22:16.422Z,68.94
2023-05-15T09:27:19.007Z,68.12
2023-05-15T09:32:20.689Z,68.50
2023-05-15T09:37:32.875Z,68.71
2023-05-15T09:42:35.305Z,68.99
2023-05-15T09:47:37.238Z,67.16
2023-05-15T09:52:39.308Z,66.92
2023-05-15T09:57:41.192Z,64.08
2023-05-15T10:02:42.923Z,63.92
2023-05-15T10:07:44.595Z,63.62
2023-05-15T10:12:48.337Z,63.81
2023-05-15T10:17:52.405Z,62.45
2023-05-15T10:22:56.261Z,60.45
2023-05-15T10:27:58.123Z,60.63
2023-05-15T10:33:01.034Z,57.84
2023-05-15T10:38:05.564Z,56.62
2023-05-15T10:43:10.276Z,55.55
2023-05-15T10:48:14.041Z,54.99
2023-05-15T10:53:16.240Z,52.74
2023-05-15T10:58:21.710Z,48.72
2023-05-15T11:03:48.171Z,48.26
2023-05-15T11:08:51.317Z,47.58
2023-05-15T11:14:05.424Z,45.93
2023-05-15T11:19:21.827Z,43.16
2023-05-15T11:24:58.720Z,47.28
2023-05-15T11:30:08.071Z,47.41
2023-05-15T11:35:11.469Z,51.26
2023-05-15T11:40:25.798Z,56.03
2023-05-15T11:45:40.092Z,63.01
2023-05-15T11:50:42.770Z,65.59
2023-05-15T11:55:44.716Z,70.74
2023-05-15T12:00:47.983Z,71.74
2023-05-15T12:05:58.342Z,73.53
2023-05-15T12:11:02.810Z,72.16
2023-05-15T12:16:05.040Z,73.17
2023-05-15T12:21:06.800Z,69.54
2023-05-15T12:26:08.520Z,66.80
2023-05-15T12:31:11.660Z,59.75
2023-05-15T12:36:13.314Z,59.47
2023-05-15T12:41:15.056Z,57.00
2023-05-15T12:46:21.807Z,55.21
2023-05-15T12:51:23.534Z,51.95
2023-05-15T12:56:26.222Z,51.41
2023-05-15T13:01:28.951Z,52.02
2023-05-15T13:06:44.881Z,53.80
2023-05-15T13:11:47.704Z,44.77
2023-05-15T13:16:49.338Z,45.07
2023-05-15T13:21:51.039Z,43.73
2023-05-15T13:26:52.931Z,43.83
2023-05-15T13:31:54.642Z,43.87
2023-05-15T13:36:56.226Z,47.06
2023-05-15T13:41:58.514Z,49.56
2023-05-15T13:47:04.290Z,48.96
2023-05-15T13:52:06.372Z,45.83
2023-05-15T13:57:07.983Z,48.31
2023-05-15T14:02:09.564Z,47.94
2023-05-15T14:07:11.248Z,49.49
2023-05-15T14:12:12.986Z,49.02
2023-05-15T14:17:15.112Z,48.84
2023-05-15T14:22:16.713Z,50.00
2023-05-15T14:27:18.339Z,50.69
2023-05-15T14:32:20.107Z,51.73
2023-05-15T14:37:21.791Z,52.30
2023-05-15T14:42:23.560Z,53.66
2023-05-15T14:47:27.838Z,53.76
2023-05-15T14:52:29.578Z,53.95
2023-05-15T14:57:31.159Z,51.95
2023-05-15T15:02:33.010Z,51.24
2023-05-15T15:08:04.825Z,45.62
2023-05-15T15:13:07.805Z,45.55
2023-05-15T15:18:09.505Z,43.84
2023-05-15T15:23:11.109Z,44.89
2023-05-15T15:28:12.986Z,39.97
2023-05-15T15:33:14.579Z,40.88
2023-05-15T15:38:16.344Z,39.81
2023-05-15T15:43:17.960Z,41.14
2023-05-15T15:48:20.757Z,46.42
2023-05-15T15:53:22.931Z,51.94
2023-05-15T15:58:24.845Z,55.17
2023-05-15T16:03:26.647Z,63.86
2023-05-15T16:08:28.999Z,75.25
2023-05-15T16:13:30.659Z,82.22
2023-05-15T16:18:32.367Z,85.61
2023-05-15T16:23:35.466Z,84.10
2023-05-15T16:28:37.466Z,79.52
2023-05-15T16:33:39.202Z,88.79
2023-05-15T16:38:40.950Z,86.16
2023-05-15T16:43:42.630Z,83.37
2023-05-15T16:48:44.465Z,85.38
2023-05-15T16:53:47.068Z,77.68
2023-05-15T16:58:48.771Z,79.24
2023-05-15T17:03:50.843Z,84.29
2023-05-15T17:08:52.836Z,86.24
2023-05-15T17:13:54.514Z,87.94
2023-05-15T17:18:56.450Z,89.27
2023-05-15T17:23:58.278Z,88.96
2023-05-15T17:29:00.610Z,88.50
2023-05-15T17:34:02.285Z,87.67
2023-05-15T17:39:03.936Z,85.80
2023-05-15T17:44:05.794Z,81.68
2023-05-15T17:49:07.549Z,81.31
2023-05-15T17:54:09.193Z,82.24
2023-05-15T17:59:10.957Z,79.64
2023-05-15T18:04:27.561Z,78.89
2023-05-15T18:14:31.289Z,73.78
2023-05-15T18:19:33.224Z,78.63
2023-05-15T18:24:34.934Z,80.21
2023-05-15T18:29:36.615Z,84.29
2023-05-15T18:34:38.200Z,89.76
2023-05-15T18:39:40.006Z,90.98
2023-05-15T18:44:41.915Z,91.57
2023-05-15T18:49:43.785Z,93.28
2023-05-15T18:54:45.591Z,94.00
2023-05-15T18:59:48.127Z,92.16
2023-05-15T19:04:49.888Z,91.95
2023-05-15T19:09:51.742Z,90.91
2023-05-15T19:14:53.437Z,91.11
2023-05-15T19:19:55.255Z,92.52
2023-05-15T19:24:56.947Z,93.41
2023-05-15T19:29:58.990Z,97.26
2023-05-15T19:35:00.583Z,99.18
2023-05-15T19:40:02.299Z,99.18
2023-05-15T19:45:04.353Z,100.00
2023-05-15T19:50:06.753Z,100.00
2023-05-15T19:55:08.983Z,100.00
2023-05-15T20:00:12.349Z,100.00
2023-05-15T20:05:15.500Z,100.00
2023-05-15T20:10:18.972Z,100.00
2023-05-15T20:15:20.651Z,96.99
2023-05-15T20:20:23.005Z,92.67
2023-05-15T20:25:27.481Z,88.02
2023-05-15T20:30:29.641Z,87.74
2023-05-15T20:35:32.098Z,87.61
2023-05-15T20:40:33.721Z,78.53
2023-05-15T20:45:35.484Z,76.09
2023-05-15T20:50:37.458Z,74.69
2023-05-15T20:55:39.083Z,73.93
2023-05-15T21:00:40.690Z,73.92
2023-05-15T21:05:42.312Z,74.70
2023-05-15T21:10:44.089Z,73.67
2023-05-15T21:15:45.701Z,73.31
2023-05-15T21:20:47.339Z,75.25
2023-05-15T21:25:49.000Z,74.79
2023-05-15T21:30:50.671Z,74.01
2023-05-15T21:35:52.727Z,74.90
2023-05-15T21:40:54.310Z,73.96
2023-05-15T21:45:57.004Z,76.00
2023-05-15T21:50:58.751Z,75.33
2023-05-15T21:56:01.789Z,74.95
2023-05-15T22:01:03.492Z,75.53
2023-05-15T22:06:05.180Z,76.44
2023-05-15T22:11:07.333Z,76.60
2023-05-15T22:16:09.539Z,76.98
2023-05-15T22:21:11.401Z,77.57
2023-05-15T22:26:13.089Z,77.93
2023-05-15T22:31:14.707Z,77.87
2023-05-15T22:36:16.495Z,78.20
2023-05-15T22:41:18.255Z,79.73
2023-05-15T22:46:19.918Z,78.89
2023-05-15T22:51:22.288Z,79.01
2023-05-15T22:56:24.031Z,79.83
2023-05-15T23:01:25.949Z,79.29
2023-05-15T23:06:27.692Z,79.59
2023-05-15T23:11:29.313Z,79.91
2023-05-15T23:16:31.186Z,80.70
2023-05-15T23:21:32.966Z,81.58
2023-05-15T23:26:34.601Z,81.77
2023-05-15T23:31:36.238Z,80.99
2023-05-15T23:36:37.947Z,81.46
2023-05-15T23:41:39.532Z,81.00
2023-05-15T23:46:41.171Z,81.03
2023-05-15T23:51:43.674Z,81.64
2023-05-15T23:56:45.358Z,82.06
